Mikiona — WDD5057 — position and weather

sailwx.info

Track history (hours):
 
Tides and Currents Weather Stations Pressure Air Temp Water Temp Dewpoint Dewpoint Depression Visibility Wind Speed Wind Dir Waves Ship Positions

Mikiona

Owner: Sause Bros Inc, Coos Bay, OR. More information available from US FCC via Universal Licensing System and Coast Guard Vessel Documentation Center.

Last reported at 2017-Nov-19 23:42 UTC. Time now 2017-Nov-22 05:28 UTC.
Position N 38°33' W 123°43'.

Length 38 m; draft 4.5 m.

Type: Tow > 200 m length. MMSI: 367153070.

Date/timePositionNaut miles runAvg speedWind from/ knotsBaromVisibWave heightAir tempDewpointWater temp
2017-Nov-19 23:42N 38°33' W 123°43'7 9.0
2017-Nov-19 22:59N 38°27' W 123°38'5 9.5
2017-Nov-19 22:30N 38°24' W 123°34'5 9.4
2017-Nov-19 22:00N 38°20' W 123°30'5 9.1
2017-Nov-19 21:30N 38°17' W 123°27'5 9.5
2017-Nov-19 21:00N 38°13' W 123°23'5 9.1
2017-Nov-19 20:30N 38°09' W 123°20'5 9.6
2017-Nov-19 20:00N 38°06' W 123°16'5 9.5
2017-Nov-19 19:30N 38°02' W 123°12'5 9.4
2017-Nov-19 19:00N 37°58' W 123°08'5 9.5
2017-Nov-19 18:30N 37°56' W 123°03'5 9.3
2017-Nov-19 18:00N 37°54' W 122°58'5 9.4
2017-Nov-19 17:30N 37°51' W 122°53'5 9.3
2017-Nov-19 17:00N 37°49' W 122°47'5 9.1
2017-Nov-19 16:30N 37°47' W 122°42'4 8.9
2017-Nov-19 16:00N 37°46' W 122°37'4 9.0
2017-Nov-19 15:30N 37°48' W 122°31'5 9.1
2017-Nov-19 15:00N 37°50' W 122°26'4 8.5
2017-Nov-19 14:30N 37°54' W 122°25'1 2.4
2017-Nov-19 14:00N 37°55' W 122°25'0 0.4
2017-Nov-19 13:30N 37°55' W 122°25'0 0.5
2017-Nov-19 13:00N 37°55' W 122°25'0 0.0
2017-Nov-19 12:18N 37°55' W 122°25'0 0.0
2017-Nov-19 12:00N 37°55' W 122°25'0 0.0
2017-Nov-19 07:27N 37°55' W 122°25'0 0.0
2017-Nov-19 07:00N 37°55' W 122°25'0 0.0
2017-Nov-19 06:30N 37°55' W 122°25'0 0.0
2017-Nov-19 05:12N 37°55' W 122°25'0 0.0
2017-Nov-19 04:54N 37°55' W 122°25'0 0.0
2017-Nov-19 04:18N 37°55' W 122°25'0 0.0
2017-Nov-19 04:00N 37°55' W 122°25'0 0.0
2017-Nov-19 03:30N 37°55' W 122°25'0 0.0
2017-Nov-19 01:15N 37°55' W 122°25'0 0.0
2017-Nov-19 00:54N 37°55' W 122°25'0 0.0
2017-Nov-19 00:24N 37°55' W 122°25'0 0.0
2017-Nov-19 00:00N 37°55' W 122°25'0 0.0
2017-Nov-18 23:30N 37°55' W 122°25'0 0.0
2017-Nov-18 23:00N 37°55' W 122°25'0 0.0
2017-Nov-18 21:48N 37°55' W 122°25'0 0.0
2017-Nov-18 21:18N 37°55' W 122°25'0 0.0
2017-Nov-18 21:00N 37°55' W 122°25'0 0.0
2017-Nov-18 20:30N 37°55' W 122°25'0 0.0
2017-Nov-18 20:00N 37°55' W 122°25'0 0.0
2017-Nov-18 19:27N 37°55' W 122°25'0 0.0
2017-Nov-18 18:00N 37°55' W 122°25'0 0.0
2017-Nov-18 17:30N 37°55' W 122°25'0 0.4
2017-Nov-18 16:53N 37°55' W 122°25'0 0.0
2017-Nov-18 16:30N 37°55' W 122°25'1 2.2
2017-Nov-18 16:00N 37°54' W 122°24'2 4.1
2017-Nov-18 15:30N 37°52' W 122°24'4 8.4
2017-Nov-18 15:00N 37°49' W 122°28'510.0
2017-Nov-18 14:30N 37°47' W 122°33'5 9.3
2017-Nov-18 14:00N 37°45' W 122°39'5 9.8
2017-Nov-18 13:27N 37°40' W 122°40'5 9.9
2017-Nov-18 12:58N 37°35' W 122°40'5 9.9
2017-Nov-18 12:30N 37°30' W 122°39'5 9.9
2017-Nov-18 12:01N 37°25' W 122°39'5 9.4
2017-Nov-18 11:31N 37°21' W 122°39'5 9.3
2017-Nov-18 11:00N 37°16' W 122°39'5 9.1
2017-Nov-18 10:30N 37°11' W 122°40'54 9.0
2017-Nov-18 04:25N 36°18' W 122°29'4 8.8
2017-Nov-18 04:00N 36°14' W 122°27'5 9.1
2017-Nov-18 03:30N 36°10' W 122°24'5 9.0
2017-Nov-18 03:00N 36°06' W 122°22'4 8.8
2017-Nov-18 02:30N 36°02' W 122°19'4 8.7
2017-Nov-18 02:00N 35°59' W 122°16'4 8.5
2017-Nov-18 01:30N 35°55' W 122°14'4 8.7
2017-Nov-18 01:00N 35°51' W 122°11'4 8.7
2017-Nov-18 00:29N 35°48' W 122°08'5 8.7
2017-Nov-17 23:58N 35°44' W 122°05'6 8.9
2017-Nov-17 23:17N 35°39' W 122°01'3 9.0
2017-Nov-17 22:55N 35°36' W 121°58'59 9.2
2017-Nov-17 16:31N 34°47' W 121°19'0 9.6
2017-Nov-17 16:30N 34°46' W 121°19'5 9.2
2017-Nov-17 16:00N 34°42' W 121°16'4 9.1
2017-Nov-17 15:31N 34°39' W 121°13'5 9.0
2017-Nov-17 15:00N 34°35' W 121°10'5 9.1
2017-Nov-17 14:30N 34°31' W 121°07'5 9.1
2017-Nov-17 14:00N 34°29' W 121°02'5 9.2
2017-Nov-17 13:30N 34°28' W 120°56'5 9.1
2017-Nov-17 13:00N 34°27' W 120°51'4 9.0
2017-Nov-17 12:30N 34°25' W 120°46'5 9.2
2017-Nov-17 12:00N 34°24' W 120°41'5 9.8
2017-Nov-17 11:30N 34°23' W 120°35'5 9.8
2017-Nov-17 11:00N 34°21' W 120°29'5 9.9
2017-Nov-17 10:30N 34°20' W 120°23'5 9.8
2017-Nov-17 10:00N 34°19' W 120°18'5 9.9
2017-Nov-17 09:30N 34°17' W 120°12'5 9.8
2017-Nov-17 08:58N 34°16' W 120°06'5 9.5
2017-Nov-17 08:25N 34°15' W 119°60'4 9.6
2017-Nov-17 07:57N 34°14' W 119°54'5 9.9
2017-Nov-17 07:27N 34°12' W 119°49'4 9.9
2017-Nov-17 07:00N 34°11' W 119°43'5 9.9
2017-Nov-17 06:30N 34°10' W 119°38'610.3
2017-Nov-17 05:57N 34°08' W 119°31'510.0
2017-Nov-17 05:29N 34°07' W 119°26'5 9.8
2017-Nov-17 05:00N 34°06' W 119°20'5 9.9
2017-Nov-17 04:30N 34°04' W 119°14'610.0
2017-Nov-17 03:55N 34°01' W 119°08'410.3
2017-Nov-17 03:30N 33°59' W 119°04'510.0
2017-Nov-17 03:00N 33°57' W 118°58'5 9.7
2017-Nov-17 02:28N 33°54' W 118°53'4 9.3
2017-Nov-17 02:00N 33°52' W 118°49'5 9.4
2017-Nov-17 01:29N 33°50' W 118°44'5 9.3
2017-Nov-17 01:00N 33°48' W 118°39'5 9.1
2017-Nov-17 00:30N 33°45' W 118°34'6 9.4
2017-Nov-16 23:53N 33°42' W 118°28'3 9.3
2017-Nov-16 23:30N 33°40' W 118°24'4 8.7
2017-Nov-16 23:00N 33°39' W 118°20'6 0.2
2017-Nov-16 00:04N 33°43' W 118°15'1 6.6
2017-Nov-15 23:54N 33°43' W 118°14'3 1.3
2017-Nov-15 21:37N 33°46' W 118°13'0 0.0
2017-Nov-14 17:25N 33°46' W 118°13'1 3.2
2017-Nov-14 17:00N 33°45' W 118°13'6 3.9
2017-Nov-14 15:29N 33°39' W 118°12'4 7.0
2017-Nov-14 14:57N 33°36' W 118°16'3 7.5
2017-Nov-14 14:30N 33°36' W 118°20'5 9.3
2017-Nov-14 14:00N 33°36' W 118°25'5 9.2
2017-Nov-14 13:30N 33°36' W 118°31'5 9.5
2017-Nov-14 13:00N 33°36' W 118°36'5 9.2
2017-Nov-14 12:30N 33°37' W 118°42'4 9.0
2017-Nov-14 12:00N 33°37' W 118°47'5 8.9
2017-Nov-14 11:30N 33°37' W 118°53'5 9.1
2017-Nov-14 11:00N 33°38' W 118°58'5 9.1
2017-Nov-14 10:30N 33°38' W 119°03'4 8.7
2017-Nov-14 10:00N 33°39' W 119°09'4 8.8
2017-Nov-14 09:30N 33°39' W 119°14'5 9.1
2017-Nov-14 08:59N 33°39' W 119°20'4 9.0
2017-Nov-14 08:30N 33°40' W 119°25'5 9.0
2017-Nov-14 07:58N 33°40' W 119°30'4 9.2
2017-Nov-14 07:30N 33°41' W 119°36'4 9.0
2017-Nov-14 07:00N 33°42' W 119°41'5 9.1
2017-Nov-14 06:30N 33°43' W 119°46'5 9.1
2017-Nov-14 06:01N 33°43' W 119°51'5 9.2
2017-Nov-14 05:31N 33°43' W 119°57'5 9.3
2017-Nov-14 04:58N 33°43' W 120°03'4 9.0
2017-Nov-14 04:31N 33°43' W 120°08'5 9.1
2017-Nov-14 04:00N 33°43' W 120°13'5 9.9
2017-Nov-14 03:31N 33°46' W 120°18'5 9.6
2017-Nov-14 03:00N 33°48' W 120°23'5 9.1
2017-Nov-14 02:30N 33°50' W 120°28'5 9.1
2017-Nov-14 02:00N 33°53' W 120°33'5 9.1
2017-Nov-14 01:28N 33°55' W 120°38'4 9.4
2017-Nov-14 01:00N 33°58' W 120°42'5 9.6
2017-Nov-14 00:29N 34°01' W 120°47'5 9.4
2017-Nov-14 00:00N 34°04' W 120°51'5 9.3
2017-Nov-13 23:28N 34°08' W 120°55'4 9.4
2017-Nov-13 22:59N 34°11' W 120°58'5 9.4
2017-Nov-13 22:29N 34°15' W 121°01'5 9.5
2017-Nov-13 22:00N 34°19' W 121°04'183 9.2
2017-Nov-13 02:00N 36°57' W 122°58'6 9.2
2017-Nov-13 01:24N 37°03' W 123°00'6 9.1
2017-Nov-13 00:44N 37°09' W 123°02'2 9.0
2017-Nov-13 00:30N 37°11' W 123°02'4 8.7
2017-Nov-13 00:00N 37°15' W 123°02'4 8.6
2017-Nov-12 23:30N 37°19' W 123°03'5 8.8
2017-Nov-12 22:59N 37°24' W 123°04'29 8.0
2017-Nov-12 19:21N 37°46' W 122°40'410.1
2017-Nov-12 19:00N 37°47' W 122°36'611.7
2017-Nov-12 18:30N 37°49' W 122°29'5 9.4
2017-Nov-12 18:00N 37°52' W 122°24'3 5.1
2017-Nov-12 17:30N 37°55' W 122°25'1 1.5
2017-Nov-12 17:00N 37°55' W 122°25'0 0.0
2017-Nov-12 16:30N 37°55' W 122°25'0 0.0
2017-Nov-12 16:00N 37°55' W 122°25'0 0.0
2017-Nov-12 15:30N 37°55' W 122°25'0 0.0
2017-Nov-12 14:59N 37°55' W 122°25'0 0.5
2017-Nov-12 14:30N 37°55' W 122°25'0 0.3
2017-Nov-12 14:00N 37°55' W 122°25'0 0.0
2017-Nov-12 13:30N 37°55' W 122°25'0 0.0
2017-Nov-12 12:59N 37°55' W 122°25'0 0.0
2017-Nov-12 12:29N 37°55' W 122°25'0 0.0
2017-Nov-12 11:59N 37°55' W 122°25'0 0.0
2017-Nov-12 11:29N 37°55' W 122°25'0 0.0
2017-Nov-12 10:56N 37°55' W 122°25'0 0.0
2017-Nov-12 10:26N 37°55' W 122°25'0 0.0
2017-Nov-12 09:56N 37°55' W 122°25'0 0.0
2017-Nov-12 09:29N 37°55' W 122°25'0 0.0
2017-Nov-12 08:56N 37°55' W 122°25'0 0.0
2017-Nov-12 08:29N 37°55' W 122°25'0 0.0
2017-Nov-12 07:59N 37°55' W 122°25'0 0.0
2017-Nov-12 07:29N 37°55' W 122°25'0 0.0
2017-Nov-12 06:59N 37°55' W 122°25'0 0.0
2017-Nov-12 06:23N 37°55' W 122°25'0 0.0
2017-Nov-12 05:50N 37°55' W 122°25'0 0.0
2017-Nov-12 05:26N 37°55' W 122°25'0 0.0
2017-Nov-12 04:59N 37°55' W 122°25'0 0.0
2017-Nov-12 04:29N 37°55' W 122°25'0 0.0
2017-Nov-12 03:59N 37°55' W 122°25'0 0.0
2017-Nov-12 03:08N 37°55' W 122°25'0 0.0
2017-Nov-12 02:56N 37°55' W 122°25'0 0.0
2017-Nov-12 02:29N 37°55' W 122°25'0 0.0
2017-Nov-12 01:56N 37°55' W 122°25'0 0.0
2017-Nov-12 01:29N 37°55' W 122°25'0 0.0
2017-Nov-12 00:59N 37°55' W 122°25'0 0.0
2017-Nov-12 00:29N 37°55' W 122°25'0 0.0
2017-Nov-11 23:59N 37°55' W 122°25'0 0.0
2017-Nov-11 23:29N 37°55' W 122°25'0 0.0
2017-Nov-11 22:59N 37°55' W 122°25'0 0.0
2017-Nov-11 22:29N 37°55' W 122°25'0 0.0
2017-Nov-11 21:59N 37°55' W 122°25'0 0.0
2017-Nov-11 21:29N 37°55' W 122°25'0 0.0
2017-Nov-11 20:56N 37°55' W 122°25'0 0.0
2017-Nov-11 20:23N 37°55' W 122°25'0 0.0
2017-Nov-11 19:59N 37°55' W 122°25'0 0.0
2017-Nov-11 19:23N 37°55' W 122°25'0 0.0
2017-Nov-11 18:59N 37°55' W 122°25'0 0.6
2017-Nov-11 18:30N 37°55' W 122°25'0 0.0
2017-Nov-11 18:00N 37°55' W 122°25'1 1.9
2017-Nov-11 17:30N 37°55' W 122°26'0 0.2
2017-Nov-11 16:53N 37°55' W 122°26'0 0.0
2017-Nov-11 15:14N 37°55' W 122°26'0 0.0
2017-Nov-11 14:56N 37°55' W 122°26'0 0.0
2017-Nov-11 14:14N 37°55' W 122°26'0 0.0
2017-Nov-11 12:12N 37°55' W 122°26'0 0.0
2017-Nov-11 11:58N 37°55' W 122°26'0 0.0
2017-Nov-11 11:31N 37°55' W 122°26'0 0.1
2017-Nov-11 11:00N 37°55' W 122°26'0 0.0
2017-Nov-11 10:31N 37°55' W 122°26'0 0.1
2017-Nov-11 10:01N 37°55' W 122°26'0 0.1
2017-Nov-11 09:30N 37°55' W 122°26'0 0.0
2017-Nov-11 09:00N 37°55' W 122°26'0 0.0
2017-Nov-11 08:30N 37°55' W 122°26'0 0.0
2017-Nov-11 08:00N 37°55' W 122°26'0 0.0
2017-Nov-11 07:30N 37°55' W 122°26'0 0.0
2017-Nov-11 07:00N 37°55' W 122°26'0 0.0
2017-Nov-11 06:30N 37°55' W 122°26'0 0.0
2017-Nov-11 06:00N 37°55' W 122°26'0 0.0
2017-Nov-11 05:30N 37°55' W 122°26'0 0.0
2017-Nov-11 05:00N 37°55' W 122°26'0 0.1
2017-Nov-11 04:30N 37°55' W 122°26'0 0.0
2017-Nov-11 04:00N 37°55' W 122°26'0 0.0
2017-Nov-11 03:30N 37°55' W 122°26'0 0.0
2017-Nov-11 03:00N 37°55' W 122°26'0 0.0
2017-Nov-11 02:30N 37°55' W 122°26'0 0.1
2017-Nov-11 01:56N 37°55' W 122°26'1 1.2
2017-Nov-11 01:30N 37°55' W 122°26'510.5
2017-Nov-11 01:00N 37°50' W 122°24'510.5
2017-Nov-11 00:30N 37°48' W 122°30'510.8
2017-Nov-11 00:00N 37°46' W 122°37'510.1
2017-Nov-10 23:29N 37°46' W 122°43'510.0
2017-Nov-10 22:58N 37°48' W 122°50'510.1
2017-Nov-10 22:30N 37°50' W 122°55'510.1
2017-Nov-10 22:00N 37°53' W 123°00'5 9.7
2017-Nov-10 21:30N 37°55' W 123°06'510.1
2017-Nov-10 21:00N 37°58' W 123°11'510.3
2017-Nov-10 20:30N 38°02' W 123°15'510.3
2017-Nov-10 20:00N 38°06' W 123°20'510.0
2017-Nov-10 19:30N 38°09' W 123°24'5 9.6
2017-Nov-10 19:00N 38°14' W 123°26'5 9.7
2017-Nov-10 18:30N 38°18' W 123°29'5 9.6
2017-Nov-10 18:00N 38°22' W 123°33'5 9.5
2017-Nov-10 17:30N 38°26' W 123°36'5 9.4
2017-Nov-10 17:00N 38°30' W 123°39'5 9.3
2017-Nov-10 16:30N 38°34' W 123°42'  
Track history (hours):
 
Tides and Currents Weather Stations Pressure Air Temp Water Temp Dewpoint Dewpoint Depression Visibility Wind Speed Wind Dir Waves Ship Positions

Mikiona

Owner: Sause Bros Inc, Coos Bay, OR. More information available from US FCC via Universal Licensing System and Coast Guard Vessel Documentation Center.

Last reported at 2017-Nov-19 23:42 UTC. Time now 2017-Nov-22 05:28 UTC.
Position N 38°33' W 123°43'.

Length 38 m; draft 4.5 m.

Type: Tow > 200 m length. MMSI: 367153070.

Date/timePositionNaut miles runAvg speedWind from/ knotsBaromVisibWave heightAir tempDewpointWater temp
2017-Nov-19 23:42N 38°33' W 123°43'7 9.0
2017-Nov-19 22:59N 38°27' W 123°38'5 9.5
2017-Nov-19 22:30N 38°24' W 123°34'5 9.4
2017-Nov-19 22:00N 38°20' W 123°30'5 9.1
2017-Nov-19 21:30N 38°17' W 123°27'5 9.5
2017-Nov-19 21:00N 38°13' W 123°23'5 9.1
2017-Nov-19 20:30N 38°09' W 123°20'5 9.6
2017-Nov-19 20:00N 38°06' W 123°16'5 9.5
2017-Nov-19 19:30N 38°02' W 123°12'5 9.4
2017-Nov-19 19:00N 37°58' W 123°08'5 9.5
2017-Nov-19 18:30N 37°56' W 123°03'5 9.3
2017-Nov-19 18:00N 37°54' W 122°58'5 9.4
2017-Nov-19 17:30N 37°51' W 122°53'5 9.3
2017-Nov-19 17:00N 37°49' W 122°47'5 9.1
2017-Nov-19 16:30N 37°47' W 122°42'4 8.9
2017-Nov-19 16:00N 37°46' W 122°37'4 9.0
2017-Nov-19 15:30N 37°48' W 122°31'5 9.1
2017-Nov-19 15:00N 37°50' W 122°26'4 8.5
2017-Nov-19 14:30N 37°54' W 122°25'1 2.4
2017-Nov-19 14:00N 37°55' W 122°25'0 0.4
2017-Nov-19 13:30N 37°55' W 122°25'0 0.5
2017-Nov-19 13:00N 37°55' W 122°25'0 0.0
2017-Nov-19 12:18N 37°55' W 122°25'0 0.0
2017-Nov-19 12:00N 37°55' W 122°25'0 0.0
2017-Nov-19 07:27N 37°55' W 122°25'0 0.0
2017-Nov-19 07:00N 37°55' W 122°25'0 0.0
2017-Nov-19 06:30N 37°55' W 122°25'0 0.0
2017-Nov-19 05:12N 37°55' W 122°25'0 0.0
2017-Nov-19 04:54N 37°55' W 122°25'0 0.0
2017-Nov-19 04:18N 37°55' W 122°25'0 0.0
2017-Nov-19 04:00N 37°55' W 122°25'0 0.0
2017-Nov-19 03:30N 37°55' W 122°25'0 0.0
2017-Nov-19 01:15N 37°55' W 122°25'0 0.0
2017-Nov-19 00:54N 37°55' W 122°25'0 0.0
2017-Nov-19 00:24N 37°55' W 122°25'0 0.0
2017-Nov-19 00:00N 37°55' W 122°25'0 0.0
2017-Nov-18 23:30N 37°55' W 122°25'0 0.0
2017-Nov-18 23:00N 37°55' W 122°25'0 0.0
2017-Nov-18 21:48N 37°55' W 122°25'0 0.0
2017-Nov-18 21:18N 37°55' W 122°25'0 0.0
2017-Nov-18 21:00N 37°55' W 122°25'0 0.0
2017-Nov-18 20:30N 37°55' W 122°25'0 0.0
2017-Nov-18 20:00N 37°55' W 122°25'0 0.0
2017-Nov-18 19:27N 37°55' W 122°25'0 0.0
2017-Nov-18 18:00N 37°55' W 122°25'0 0.0
2017-Nov-18 17:30N 37°55' W 122°25'0 0.4
2017-Nov-18 16:53N 37°55' W 122°25'0 0.0
2017-Nov-18 16:30N 37°55' W 122°25'1 2.2
2017-Nov-18 16:00N 37°54' W 122°24'2 4.1
2017-Nov-18 15:30N 37°52' W 122°24'4 8.4
2017-Nov-18 15:00N 37°49' W 122°28'510.0
2017-Nov-18 14:30N 37°47' W 122°33'5 9.3
2017-Nov-18 14:00N 37°45' W 122°39'5 9.8
2017-Nov-18 13:27N 37°40' W 122°40'5 9.9
2017-Nov-18 12:58N 37°35' W 122°40'5 9.9
2017-Nov-18 12:30N 37°30' W 122°39'5 9.9
2017-Nov-18 12:01N 37°25' W 122°39'5 9.4
2017-Nov-18 11:31N 37°21' W 122°39'5 9.3
2017-Nov-18 11:00N 37°16' W 122°39'5 9.1
2017-Nov-18 10:30N 37°11' W 122°40'54 9.0
2017-Nov-18 04:25N 36°18' W 122°29'4 8.8
2017-Nov-18 04:00N 36°14' W 122°27'5 9.1
2017-Nov-18 03:30N 36°10' W 122°24'5 9.0
2017-Nov-18 03:00N 36°06' W 122°22'4 8.8
2017-Nov-18 02:30N 36°02' W 122°19'4 8.7
2017-Nov-18 02:00N 35°59' W 122°16'4 8.5
2017-Nov-18 01:30N 35°55' W 122°14'4 8.7
2017-Nov-18 01:00N 35°51' W 122°11'4 8.7
2017-Nov-18 00:29N 35°48' W 122°08'5 8.7
2017-Nov-17 23:58N 35°44' W 122°05'6 8.9
2017-Nov-17 23:17N 35°39' W 122°01'3 9.0
2017-Nov-17 22:55N 35°36' W 121°58'59 9.2
2017-Nov-17 16:31N 34°47' W 121°19'0 9.6
2017-Nov-17 16:30N 34°46' W 121°19'5 9.2
2017-Nov-17 16:00N 34°42' W 121°16'4 9.1
2017-Nov-17 15:31N 34°39' W 121°13'5 9.0
2017-Nov-17 15:00N 34°35' W 121°10'5 9.1
2017-Nov-17 14:30N 34°31' W 121°07'5 9.1
2017-Nov-17 14:00N 34°29' W 121°02'5 9.2
2017-Nov-17 13:30N 34°28' W 120°56'5 9.1
2017-Nov-17 13:00N 34°27' W 120°51'4 9.0
2017-Nov-17 12:30N 34°25' W 120°46'5 9.2
2017-Nov-17 12:00N 34°24' W 120°41'5 9.8
2017-Nov-17 11:30N 34°23' W 120°35'5 9.8
2017-Nov-17 11:00N 34°21' W 120°29'5 9.9
2017-Nov-17 10:30N 34°20' W 120°23'5 9.8
2017-Nov-17 10:00N 34°19' W 120°18'5 9.9
2017-Nov-17 09:30N 34°17' W 120°12'5 9.8
2017-Nov-17 08:58N 34°16' W 120°06'5 9.5
2017-Nov-17 08:25N 34°15' W 119°60'4 9.6
2017-Nov-17 07:57N 34°14' W 119°54'5 9.9
2017-Nov-17 07:27N 34°12' W 119°49'4 9.9
2017-Nov-17 07:00N 34°11' W 119°43'5 9.9
2017-Nov-17 06:30N 34°10' W 119°38'610.3
2017-Nov-17 05:57N 34°08' W 119°31'510.0
2017-Nov-17 05:29N 34°07' W 119°26'5 9.8
2017-Nov-17 05:00N 34°06' W 119°20'5 9.9
2017-Nov-17 04:30N 34°04' W 119°14'610.0
2017-Nov-17 03:55N 34°01' W 119°08'410.3
2017-Nov-17 03:30N 33°59' W 119°04'510.0
2017-Nov-17 03:00N 33°57' W 118°58'5 9.7
2017-Nov-17 02:28N 33°54' W 118°53'4 9.3
2017-Nov-17 02:00N 33°52' W 118°49'5 9.4
2017-Nov-17 01:29N 33°50' W 118°44'5 9.3
2017-Nov-17 01:00N 33°48' W 118°39'5 9.1
2017-Nov-17 00:30N 33°45' W 118°34'6 9.4
2017-Nov-16 23:53N 33°42' W 118°28'3 9.3
2017-Nov-16 23:30N 33°40' W 118°24'4 8.7
2017-Nov-16 23:00N 33°39' W 118°20'6 0.2
2017-Nov-16 00:04N 33°43' W 118°15'1 6.6
2017-Nov-15 23:54N 33°43' W 118°14'3 1.3
2017-Nov-15 21:37N 33°46' W 118°13'0 0.0
2017-Nov-14 17:25N 33°46' W 118°13'1 3.2
2017-Nov-14 17:00N 33°45' W 118°13'6 3.9
2017-Nov-14 15:29N 33°39' W 118°12'4 7.0
2017-Nov-14 14:57N 33°36' W 118°16'3 7.5
2017-Nov-14 14:30N 33°36' W 118°20'5 9.3
2017-Nov-14 14:00N 33°36' W 118°25'5 9.2
2017-Nov-14 13:30N 33°36' W 118°31'5 9.5
2017-Nov-14 13:00N 33°36' W 118°36'5 9.2
2017-Nov-14 12:30N 33°37' W 118°42'4 9.0
2017-Nov-14 12:00N 33°37' W 118°47'5 8.9
2017-Nov-14 11:30N 33°37' W 118°53'5 9.1
2017-Nov-14 11:00N 33°38' W 118°58'5 9.1
2017-Nov-14 10:30N 33°38' W 119°03'4 8.7
2017-Nov-14 10:00N 33°39' W 119°09'4 8.8
2017-Nov-14 09:30N 33°39' W 119°14'5 9.1
2017-Nov-14 08:59N 33°39' W 119°20'4 9.0
2017-Nov-14 08:30N 33°40' W 119°25'5 9.0
2017-Nov-14 07:58N 33°40' W 119°30'4 9.2
2017-Nov-14 07:30N 33°41' W 119°36'4 9.0
2017-Nov-14 07:00N 33°42' W 119°41'5 9.1
2017-Nov-14 06:30N 33°43' W 119°46'5 9.1
2017-Nov-14 06:01N 33°43' W 119°51'5 9.2
2017-Nov-14 05:31N 33°43' W 119°57'5 9.3
2017-Nov-14 04:58N 33°43' W 120°03'4 9.0
2017-Nov-14 04:31N 33°43' W 120°08'5 9.1
2017-Nov-14 04:00N 33°43' W 120°13'5 9.9
2017-Nov-14 03:31N 33°46' W 120°18'5 9.6
2017-Nov-14 03:00N 33°48' W 120°23'5 9.1
2017-Nov-14 02:30N 33°50' W 120°28'5 9.1
2017-Nov-14 02:00N 33°53' W 120°33'5 9.1
2017-Nov-14 01:28N 33°55' W 120°38'4 9.4
2017-Nov-14 01:00N 33°58' W 120°42'5 9.6
2017-Nov-14 00:29N 34°01' W 120°47'5 9.4
2017-Nov-14 00:00N 34°04' W 120°51'5 9.3
2017-Nov-13 23:28N 34°08' W 120°55'4 9.4
2017-Nov-13 22:59N 34°11' W 120°58'5 9.4
2017-Nov-13 22:29N 34°15' W 121°01'5 9.5
2017-Nov-13 22:00N 34°19' W 121°04'183 9.2
2017-Nov-13 02:00N 36°57' W 122°58'6 9.2
2017-Nov-13 01:24N 37°03' W 123°00'6 9.1
2017-Nov-13 00:44N 37°09' W 123°02'2 9.0
2017-Nov-13 00:30N 37°11' W 123°02'4 8.7
2017-Nov-13 00:00N 37°15' W 123°02'4 8.6
2017-Nov-12 23:30N 37°19' W 123°03'5 8.8
2017-Nov-12 22:59N 37°24' W 123°04'29 8.0
2017-Nov-12 19:21N 37°46' W 122°40'410.1
2017-Nov-12 19:00N 37°47' W 122°36'611.7
2017-Nov-12 18:30N 37°49' W 122°29'5 9.4
2017-Nov-12 18:00N 37°52' W 122°24'3 5.1
2017-Nov-12 17:30N 37°55' W 122°25'1 1.5
2017-Nov-12 17:00N 37°55' W 122°25'0 0.0
2017-Nov-12 16:30N 37°55' W 122°25'0 0.0
2017-Nov-12 16:00N 37°55' W 122°25'0 0.0
2017-Nov-12 15:30N 37°55' W 122°25'0 0.0
2017-Nov-12 14:59N 37°55' W 122°25'0 0.5
2017-Nov-12 14:30N 37°55' W 122°25'0 0.3
2017-Nov-12 14:00N 37°55' W 122°25'0 0.0
2017-Nov-12 13:30N 37°55' W 122°25'0 0.0
2017-Nov-12 12:59N 37°55' W 122°25'0 0.0
2017-Nov-12 12:29N 37°55' W 122°25'0 0.0
2017-Nov-12 11:59N 37°55' W 122°25'0 0.0
2017-Nov-12 11:29N 37°55' W 122°25'0 0.0
2017-Nov-12 10:56N 37°55' W 122°25'0 0.0
2017-Nov-12 10:26N 37°55' W 122°25'0 0.0
2017-Nov-12 09:56N 37°55' W 122°25'0 0.0
2017-Nov-12 09:29N 37°55' W 122°25'0 0.0
2017-Nov-12 08:56N 37°55' W 122°25'0 0.0
2017-Nov-12 08:29N 37°55' W 122°25'0 0.0
2017-Nov-12 07:59N 37°55' W 122°25'0 0.0
2017-Nov-12 07:29N 37°55' W 122°25'0 0.0
2017-Nov-12 06:59N 37°55' W 122°25'0 0.0
2017-Nov-12 06:23N 37°55' W 122°25'0 0.0
2017-Nov-12 05:50N 37°55' W 122°25'0 0.0
2017-Nov-12 05:26N 37°55' W 122°25'0 0.0
2017-Nov-12 04:59N 37°55' W 122°25'0 0.0
2017-Nov-12 04:29N 37°55' W 122°25'0 0.0
2017-Nov-12 03:59N 37°55' W 122°25'0 0.0
2017-Nov-12 03:08N 37°55' W 122°25'0 0.0
2017-Nov-12 02:56N 37°55' W 122°25'0 0.0
2017-Nov-12 02:29N 37°55' W 122°25'0 0.0
2017-Nov-12 01:56N 37°55' W 122°25'0 0.0
2017-Nov-12 01:29N 37°55' W 122°25'0 0.0
2017-Nov-12 00:59N 37°55' W 122°25'0 0.0
2017-Nov-12 00:29N 37°55' W 122°25'0 0.0
2017-Nov-11 23:59N 37°55' W 122°25'0 0.0
2017-Nov-11 23:29N 37°55' W 122°25'0 0.0
2017-Nov-11 22:59N 37°55' W 122°25'0 0.0
2017-Nov-11 22:29N 37°55' W 122°25'0 0.0
2017-Nov-11 21:59N 37°55' W 122°25'0 0.0
2017-Nov-11 21:29N 37°55' W 122°25'0 0.0
2017-Nov-11 20:56N 37°55' W 122°25'0 0.0
2017-Nov-11 20:23N 37°55' W 122°25'0 0.0
2017-Nov-11 19:59N 37°55' W 122°25'0 0.0
2017-Nov-11 19:23N 37°55' W 122°25'0 0.0
2017-Nov-11 18:59N 37°55' W 122°25'0 0.6
2017-Nov-11 18:30N 37°55' W 122°25'0 0.0
2017-Nov-11 18:00N 37°55' W 122°25'1 1.9
2017-Nov-11 17:30N 37°55' W 122°26'0 0.2
2017-Nov-11 16:53N 37°55' W 122°26'0 0.0
2017-Nov-11 15:14N 37°55' W 122°26'0 0.0
2017-Nov-11 14:56N 37°55' W 122°26'0 0.0
2017-Nov-11 14:14N 37°55' W 122°26'0 0.0
2017-Nov-11 12:12N 37°55' W 122°26'0 0.0
2017-Nov-11 11:58N 37°55' W 122°26'0 0.0
2017-Nov-11 11:31N 37°55' W 122°26'0 0.1
2017-Nov-11 11:00N 37°55' W 122°26'0 0.0
2017-Nov-11 10:31N 37°55' W 122°26'0 0.1
2017-Nov-11 10:01N 37°55' W 122°26'0 0.1
2017-Nov-11 09:30N 37°55' W 122°26'0 0.0
2017-Nov-11 09:00N 37°55' W 122°26'0 0.0
2017-Nov-11 08:30N 37°55' W 122°26'0 0.0
2017-Nov-11 08:00N 37°55' W 122°26'0 0.0
2017-Nov-11 07:30N 37°55' W 122°26'0 0.0
2017-Nov-11 07:00N 37°55' W 122°26'0 0.0
2017-Nov-11 06:30N 37°55' W 122°26'0 0.0
2017-Nov-11 06:00N 37°55' W 122°26'0 0.0
2017-Nov-11 05:30N 37°55' W 122°26'0 0.0
2017-Nov-11 05:00N 37°55' W 122°26'0 0.1
2017-Nov-11 04:30N 37°55' W 122°26'0 0.0
2017-Nov-11 04:00N 37°55' W 122°26'0 0.0
2017-Nov-11 03:30N 37°55' W 122°26'0 0.0
2017-Nov-11 03:00N 37°55' W 122°26'0 0.0
2017-Nov-11 02:30N 37°55' W 122°26'0 0.1
2017-Nov-11 01:56N 37°55' W 122°26'1 1.2
2017-Nov-11 01:30N 37°55' W 122°26'510.5
2017-Nov-11 01:00N 37°50' W 122°24'510.5
2017-Nov-11 00:30N 37°48' W 122°30'510.8
2017-Nov-11 00:00N 37°46' W 122°37'510.1
2017-Nov-10 23:29N 37°46' W 122°43'510.0
2017-Nov-10 22:58N 37°48' W 122°50'510.1
2017-Nov-10 22:30N 37°50' W 122°55'510.1
2017-Nov-10 22:00N 37°53' W 123°00'5 9.7
2017-Nov-10 21:30N 37°55' W 123°06'510.1
2017-Nov-10 21:00N 37°58' W 123°11'510.3
2017-Nov-10 20:30N 38°02' W 123°15'510.3
2017-Nov-10 20:00N 38°06' W 123°20'510.0
2017-Nov-10 19:30N 38°09' W 123°24'5 9.6
2017-Nov-10 19:00N 38°14' W 123°26'5 9.7
2017-Nov-10 18:30N 38°18' W 123°29'5 9.6
2017-Nov-10 18:00N 38°22' W 123°33'5 9.5
2017-Nov-10 17:30N 38°26' W 123°36'5 9.4
2017-Nov-10 17:00N 38°30' W 123°39'5 9.3
2017-Nov-10 16:30N 38°34' W 123°42'  

Dump ship's entire track history